Accueil
METAR-TAF:

METAR-TAF

Aéroports :

Aéroport de Schefferville

Schefferville, Québec, Canada

latitude: 54-48N, longitude: 066-48W, altitude: 521 m

Observation

Le bulletin a été fait il y a 15 heures et 36 minutes, à 11:00 UTC
Vent 2 kt de direction variable
Température -11°C
Humidité 66%
Pression 1026 hPa
Visibilité: 14.5 km
Ciel clair

METAR: CYKL 231100Z AUTO VRB02KT 9SM CLR M11/M16 A3030 RMK SLP303

Heure: 22:36 (02:36 UTC)

Prévision

Le bulletin a été fait il y a 12 heures et 48 minutes, à 13:48 UTC
Prévision valable du 23 à 14 UTC au 24 à 02 UTC
Vent 3 kt de direction variable
Visibilité: 10 km
Ciel clair
Evoluant progressivement
du 23 à 14 UTC au 23 à 16 UTC
Vent 7 kt de ouest/sud-ouest
Evoluant progressivement
du 24 à 00 UTC au 24 à 02 UTC
Vent 3 kt de direction variable

TAF: CYKL 231348Z 2314/2402 VRB03KT P6SM SKC BECMG 2314/2316 25007KT BECMG 2400/2402 VRB03KT RMK FCST BASED ON AUTO OBS. NXT FCST BY 232000Z

Observations et prévisions météorologiques de plus de 4000 aéroports (messages METAR et TAF).

Les stations disponibles sont représentées par des disques jaunes et rouges sur la carte.

Passer la souris dessus pour voir le nom de la station.

Cliquer dessus pour voir les observations et prévisions météorologiques.

Pour changer de carte: cliquez sur les boutons verts avec une croix noire pour zoomer, sur le bouton vert avec un tiret pour effectuer un zoom arrière, ou sur les flèches vertes pour les cartes adjacentes.


METAR-TAF: